createdAt,value
2018-06-24T00:00:39.469Z,13.13
2018-06-24T00:03:11.600Z,13.15
2018-06-24T00:05:43.649Z,13.16
2018-06-24T00:08:15.681Z,13.19
2018-06-24T00:10:47.768Z,13.25
2018-06-24T00:13:19.835Z,13.20
2018-06-24T00:15:51.923Z,13.26
2018-06-24T00:18:23.992Z,13.23
2018-06-24T00:20:56.166Z,13.22
2018-06-24T00:23:28.213Z,13.21
2018-06-24T00:26:00.288Z,13.12
2018-06-24T00:28:32.392Z,13.15
2018-06-24T00:31:04.479Z,13.15
2018-06-24T00:33:36.573Z,13.04
2018-06-24T00:36:08.675Z,13.03
2018-06-24T00:38:40.758Z,13.04
2018-06-24T00:41:12.792Z,13.04
2018-06-24T00:43:45.115Z,13.04
2018-06-24T00:46:17.165Z,13.05
2018-06-24T00:48:49.318Z,12.96
2018-06-24T00:51:21.383Z,12.89
2018-06-24T00:53:53.457Z,12.89
2018-06-24T00:56:25.590Z,12.84
2018-06-24T00:58:57.671Z,12.86
2018-06-24T01:01:29.740Z,12.85
2018-06-24T01:04:01.804Z,12.94
2018-06-24T01:06:33.877Z,13.01
2018-06-24T01:09:06.264Z,12.99
2018-06-24T01:11:38.356Z,13.07
2018-06-24T01:14:10.411Z,13.02
2018-06-24T01:16:42.459Z,13.05
2018-06-24T01:19:14.575Z,13.06
2018-06-24T01:21:46.645Z,13.06
2018-06-24T01:24:18.743Z,13.02
2018-06-24T01:26:50.836Z,13.17
2018-06-24T01:29:22.907Z,13.20
2018-06-24T01:31:54.967Z,13.20
2018-06-24T01:34:27.067Z,13.17
2018-06-24T01:36:59.234Z,13.20
2018-06-24T01:39:31.254Z,13.12
2018-06-24T01:42:03.336Z,13.17
2018-06-24T01:44:35.454Z,13.27
2018-06-24T01:47:07.559Z,13.29
2018-06-24T01:49:39.667Z,13.21
2018-06-24T01:52:11.735Z,13.27
2018-06-24T01:54:43.807Z,13.28
2018-06-24T01:57:15.901Z,13.27
2018-06-24T01:59:47.940Z,13.24
2018-06-24T02:02:20.007Z,13.26
2018-06-24T02:04:52.065Z,13.23
2018-06-24T02:07:24.126Z,13.33
2018-06-24T02:09:56.169Z,13.30
2018-06-24T02:12:28.244Z,13.25
2018-06-24T02:15:00.330Z,13.25
2018-06-24T02:17:32.399Z,13.20
2018-06-24T02:20:04.462Z,13.21
2018-06-24T02:22:36.537Z,13.21
2018-06-24T02:25:08.736Z,13.23
2018-06-24T02:27:40.823Z,13.17
2018-06-24T02:30:12.852Z,13.11
2018-06-24T02:32:44.968Z,13.12
2018-06-24T02:35:17.006Z,13.22
2018-06-24T02:37:49.119Z,13.21
2018-06-24T02:40:21.233Z,13.22
2018-06-24T02:42:53.404Z,13.24
2018-06-24T02:45:25.471Z,13.23
2018-06-24T02:47:57.614Z,13.23
2018-06-24T02:50:29.695Z,13.15
2018-06-24T02:53:01.757Z,13.22
2018-06-24T02:55:33.806Z,13.16
2018-06-24T02:58:05.903Z,13.16
2018-06-24T03:00:38.000Z,13.09
2018-06-24T03:03:10.091Z,13.17
2018-06-24T03:05:42.182Z,13.11
2018-06-24T03:08:14.302Z,13.12
2018-06-24T03:10:46.435Z,13.12
2018-06-24T03:13:18.497Z,13.15
2018-06-24T03:15:50.601Z,13.12
2018-06-24T03:18:22.644Z,13.12
2018-06-24T03:20:54.690Z,13.10
2018-06-24T03:23:26.802Z,13.09
2018-06-24T03:25:58.871Z,13.11
2018-06-24T03:28:30.936Z,13.09
2018-06-24T03:31:03.003Z,13.11
2018-06-24T03:33:35.084Z,13.07
2018-06-24T03:36:07.187Z,13.07
2018-06-24T03:38:39.285Z,13.04
2018-06-24T03:41:11.363Z,13.07
2018-06-24T03:43:43.529Z,13.05
2018-06-24T03:46:15.597Z,13.06
2018-06-24T03:48:47.671Z,13.08
2018-06-24T03:51:19.733Z,13.10
2018-06-24T03:53:51.802Z,13.05
2018-06-24T03:56:23.871Z,12.98
2018-06-24T03:58:55.962Z,13.06
2018-06-24T04:01:28.549Z,13.04
2018-06-24T04:04:00.646Z,13.09
2018-06-24T04:06:32.737Z,13.06
2018-06-24T04:09:06.077Z,13.10
2018-06-24T04:11:38.144Z,13.09
2018-06-24T04:14:10.205Z,13.09
2018-06-24T04:16:42.277Z,12.99
2018-06-24T04:19:14.381Z,13.00
2018-06-24T04:21:46.429Z,13.08
2018-06-24T04:24:18.515Z,13.08
2018-06-24T04:26:50.602Z,13.05
2018-06-24T04:29:22.722Z,13.09
2018-06-24T04:31:54.760Z,13.12
2018-06-24T04:34:26.831Z,13.18
2018-06-24T04:36:58.922Z,13.20
2018-06-24T04:39:30.987Z,13.28
2018-06-24T04:42:03.023Z,13.34
2018-06-24T04:44:35.090Z,13.36
2018-06-24T04:47:07.163Z,13.39
2018-06-24T04:49:39.244Z,13.43
2018-06-24T04:52:11.344Z,13.47
2018-06-24T04:54:43.412Z,13.55
2018-06-24T04:57:15.503Z,13.59
2018-06-24T04:59:47.596Z,13.59
2018-06-24T05:02:19.675Z,13.48
2018-06-24T05:04:51.729Z,13.53
2018-06-24T05:07:23.804Z,13.62
2018-06-24T05:09:55.880Z,13.76
2018-06-24T05:12:27.944Z,13.86
2018-06-24T05:14:59.996Z,13.87
2018-06-24T05:17:32.037Z,13.93
2018-06-24T05:20:04.107Z,14.02
2018-06-24T05:22:36.188Z,14.05
2018-06-24T05:25:08.509Z,14.09
2018-06-24T05:27:40.675Z,14.14
2018-06-24T05:30:12.744Z,14.33
2018-06-24T05:32:44.811Z,14.40
2018-06-24T05:35:16.881Z,14.51
2018-06-24T05:37:48.980Z,14.59
2018-06-24T05:40:21.078Z,14.56
2018-06-24T05:42:53.175Z,14.73
2018-06-24T05:45:25.261Z,14.78
2018-06-24T05:47:57.320Z,14.68
2018-06-24T05:50:29.480Z,14.82
2018-06-24T05:53:01.630Z,14.79
2018-06-24T05:55:33.749Z,15.06
2018-06-24T05:58:05.879Z,15.15
2018-06-24T06:00:37.984Z,15.26
2018-06-24T06:03:10.149Z,15.20
2018-06-24T06:05:42.224Z,14.94
2018-06-24T06:08:14.334Z,15.21
2018-06-24T06:10:46.465Z,15.24
2018-06-24T06:13:18.543Z,15.76
2018-06-24T06:15:50.616Z,15.76
2018-06-24T06:18:22.704Z,16.02
2018-06-24T06:20:55.247Z,16.24
2018-06-24T06:23:27.343Z,16.30
2018-06-24T06:25:59.464Z,16.63
2018-06-24T06:28:32.270Z,16.93
2018-06-24T06:31:04.416Z,17.14
2018-06-24T06:33:36.490Z,17.53
2018-06-24T06:36:08.648Z,17.86
2018-06-24T06:38:40.705Z,18.11
2018-06-24T06:41:12.816Z,18.11
2018-06-24T06:43:44.867Z,18.24
2018-06-24T06:46:16.937Z,18.29
2018-06-24T06:48:48.995Z,18.29
2018-06-24T06:51:21.070Z,18.12
2018-06-24T06:53:53.103Z,17.78
2018-06-24T06:56:25.197Z,18.09
2018-06-24T06:58:57.228Z,18.55
2018-06-24T07:01:29.307Z,18.88
2018-06-24T07:04:01.364Z,18.84
2018-06-24T07:06:33.424Z,19.04
2018-06-24T07:09:06.960Z,19.78
2018-06-24T07:11:39.375Z,20.11
2018-06-24T07:14:11.476Z,19.75
2018-06-24T07:16:43.521Z,19.38
2018-06-24T07:19:15.596Z,19.70
2018-06-24T07:21:47.722Z,20.68
2018-06-24T07:24:19.824Z,21.20
2018-06-24T07:26:51.874Z,21.50
2018-06-24T07:29:23.938Z,20.80
2018-06-24T07:31:56.096Z,20.97
2018-06-24T07:34:28.172Z,21.40
2018-06-24T07:37:00.224Z,21.98
2018-06-24T07:39:32.305Z,23.65
2018-06-24T07:42:04.378Z,24.32
2018-06-24T07:44:36.460Z,22.24
2018-06-24T07:47:08.615Z,23.92
2018-06-24T07:49:40.676Z,24.32
2018-06-24T07:52:12.773Z,25.03
2018-06-24T07:54:44.812Z,25.38
2018-06-24T07:57:16.939Z,25.41
2018-06-24T07:59:49.535Z,26.04
2018-06-24T08:02:21.615Z,24.86
2018-06-24T08:04:53.732Z,24.00
2018-06-24T08:07:25.899Z,23.72
2018-06-24T08:09:57.991Z,23.81
2018-06-24T08:12:30.914Z,24.55
2018-06-24T08:15:03.050Z,24.81
2018-06-24T08:17:35.126Z,24.17
2018-06-24T08:20:07.241Z,24.31
2018-06-24T08:22:39.385Z,23.53
2018-06-24T08:25:11.420Z,23.59
2018-06-24T08:27:43.506Z,22.62
2018-06-24T08:30:15.595Z,22.78
2018-06-24T08:32:47.711Z,25.02
2018-06-24T08:35:21.028Z,23.76
2018-06-24T08:37:53.119Z,22.64
2018-06-24T08:40:25.374Z,22.59
2018-06-24T08:42:57.509Z,21.99
2018-06-24T08:45:29.630Z,21.50
2018-06-24T08:48:01.749Z,22.08
2018-06-24T08:50:33.836Z,23.88
2018-06-24T08:53:05.984Z,23.66
2018-06-24T08:55:38.116Z,23.44
2018-06-24T08:58:10.223Z,23.71
2018-06-24T09:00:42.381Z,24.64
2018-06-24T09:03:14.461Z,25.33
2018-06-24T09:05:46.537Z,24.91
2018-06-24T09:08:18.598Z,23.67
2018-06-24T09:10:50.710Z,21.91
2018-06-24T09:13:22.829Z,21.74
2018-06-24T09:15:54.965Z,21.67
2018-06-24T09:18:26.984Z,21.40
2018-06-24T09:20:59.079Z,20.60
2018-06-24T09:23:31.222Z,21.04
2018-06-24T09:26:03.260Z,21.18
2018-06-24T09:28:35.387Z,20.85
2018-06-24T09:31:07.484Z,21.38
2018-06-24T09:33:39.590Z,20.79
2018-06-24T09:36:11.707Z,20.47
2018-06-24T09:38:43.801Z,20.86
2018-06-24T09:41:15.916Z,20.98
2018-06-24T09:43:47.977Z,22.17
2018-06-24T09:46:20.034Z,22.62
2018-06-24T09:48:52.251Z,22.49
2018-06-24T09:51:24.328Z,22.88
2018-06-24T09:53:56.415Z,23.72
2018-06-24T09:56:28.685Z,23.81
2018-06-24T09:59:00.763Z,22.76
2018-06-24T10:01:32.904Z,21.85
2018-06-24T10:04:05.223Z,20.84
2018-06-24T10:06:37.288Z,21.42
2018-06-24T10:09:10.405Z,21.01
2018-06-24T10:11:42.464Z,20.44
2018-06-24T10:14:14.502Z,20.43
2018-06-24T10:16:46.573Z,20.14
2018-06-24T10:19:18.663Z,20.41
2018-06-24T10:21:50.728Z,21.34
2018-06-24T10:24:22.832Z,21.60
2018-06-24T10:26:54.919Z,21.99
2018-06-24T10:29:27.041Z,21.82
2018-06-24T10:31:59.102Z,22.33
2018-06-24T10:34:31.175Z,22.22
2018-06-24T10:37:03.308Z,22.64
2018-06-24T10:39:35.373Z,21.63
2018-06-24T10:42:07.528Z,21.64
2018-06-24T10:44:39.664Z,22.46
2018-06-24T10:47:11.793Z,22.13
2018-06-24T10:49:43.842Z,23.54
2018-06-24T10:52:15.927Z,24.73
2018-06-24T10:54:47.984Z,25.10
2018-06-24T10:57:20.089Z,24.44
2018-06-24T10:59:52.235Z,25.40
2018-06-24T11:02:24.293Z,25.37
2018-06-24T11:04:56.400Z,25.35
2018-06-24T11:07:28.480Z,25.19
2018-06-24T11:10:00.592Z,23.80
2018-06-24T11:12:32.695Z,26.12
2018-06-24T11:15:04.928Z,26.91
2018-06-24T11:17:37.062Z,27.27
2018-06-24T11:20:09.152Z,28.10
2018-06-24T11:22:41.331Z,28.59
2018-06-24T11:25:13.444Z,28.10
2018-06-24T11:27:45.520Z,28.84
2018-06-24T11:30:17.585Z,28.83
2018-06-24T11:32:49.647Z,27.59
2018-06-24T11:35:21.713Z,26.52
2018-06-24T11:37:53.784Z,25.86
2018-06-24T11:40:25.892Z,27.00
2018-06-24T11:42:58.150Z,26.32
2018-06-24T11:45:31.187Z,26.28
2018-06-24T11:48:03.289Z,26.10
2018-06-24T11:50:35.404Z,26.08
2018-06-24T11:53:07.481Z,24.05
2018-06-24T11:55:39.617Z,24.85
2018-06-24T11:58:11.720Z,23.79
2018-06-24T12:00:43.807Z,23.92
2018-06-24T12:03:15.884Z,23.83
2018-06-24T12:05:48.079Z,24.71
2018-06-24T12:08:20.245Z,25.68
2018-06-24T12:10:52.386Z,26.73
2018-06-24T12:13:24.452Z,27.70
2018-06-24T12:15:56.602Z,27.66
2018-06-24T12:18:28.664Z,27.81
2018-06-24T12:21:00.733Z,27.98
2018-06-24T12:23:32.827Z,27.84
2018-06-24T12:26:04.932Z,26.91
2018-06-24T12:28:36.975Z,25.99
2018-06-24T12:31:09.040Z,25.55
2018-06-24T12:33:41.110Z,24.31
2018-06-24T12:36:13.193Z,24.34
2018-06-24T12:38:45.254Z,24.00
2018-06-24T12:41:17.455Z,23.40
2018-06-24T12:43:49.667Z,23.32
2018-06-24T12:46:21.774Z,23.39
2018-06-24T12:48:53.860Z,23.68
2018-06-24T12:51:25.964Z,24.07
2018-06-24T12:53:59.630Z,24.60
2018-06-24T12:56:32.262Z,24.16
2018-06-24T12:59:04.720Z,23.72
2018-06-24T13:01:36.610Z,24.00
2018-06-24T13:04:08.676Z,23.66
2018-06-24T13:06:40.756Z,23.19
2018-06-24T13:09:12.869Z,22.78
2018-06-24T13:11:45.136Z,21.97
2018-06-24T13:14:17.303Z,21.70
2018-06-24T13:16:49.391Z,21.44
2018-06-24T13:19:21.526Z,22.11
2018-06-24T13:21:53.648Z,21.52
2018-06-24T13:24:25.765Z,21.43
2018-06-24T13:26:57.866Z,22.14
2018-06-24T13:29:29.965Z,22.59
2018-06-24T13:32:02.081Z,22.83
2018-06-24T13:34:34.157Z,22.94
2018-06-24T13:37:06.279Z,23.00
2018-06-24T13:39:38.357Z,23.22
2018-06-24T13:42:10.519Z,22.99
2018-06-24T13:44:42.605Z,22.85
2018-06-24T13:47:14.796Z,22.54
2018-06-24T13:49:46.859Z,22.62
2018-06-24T13:52:18.941Z,22.53
2018-06-24T13:54:51.120Z,22.61
2018-06-24T13:57:23.223Z,22.60
2018-06-24T13:59:55.288Z,23.45
2018-06-24T14:02:27.395Z,22.62
2018-06-24T14:04:59.494Z,22.84
2018-06-24T14:07:31.640Z,22.14
2018-06-24T14:10:03.764Z,22.23
2018-06-24T14:12:35.867Z,21.95
2018-06-24T14:15:07.944Z,21.94
2018-06-24T14:17:40.011Z,22.00
2018-06-24T14:20:12.105Z,22.14
2018-06-24T14:22:44.245Z,21.86
2018-06-24T14:25:16.299Z,22.36
2018-06-24T14:27:48.391Z,22.57
2018-06-24T14:30:20.486Z,22.72
2018-06-24T14:32:52.579Z,22.28
2018-06-24T14:35:24.715Z,21.77
2018-06-24T14:37:56.885Z,21.85
2018-06-24T14:40:29.095Z,22.16
2018-06-24T14:43:01.623Z,22.48
2018-06-24T14:45:33.752Z,22.02
2018-06-24T14:48:06.390Z,22.57
2018-06-24T14:50:38.553Z,22.67
2018-06-24T14:53:10.743Z,23.13
2018-06-24T14:55:42.967Z,24.59
2018-06-24T14:58:15.208Z,24.89
2018-06-24T15:00:47.682Z,25.14
2018-06-24T15:03:19.745Z,24.31
2018-06-24T15:05:52.224Z,24.02
2018-06-24T15:08:24.387Z,23.29
2018-06-24T15:10:56.480Z,23.63
2018-06-24T15:13:28.574Z,22.60
2018-06-24T15:16:00.702Z,22.53
2018-06-24T15:18:32.816Z,22.57
2018-06-24T15:21:04.911Z,22.40
2018-06-24T15:23:37.037Z,22.45
2018-06-24T15:26:09.531Z,22.57
2018-06-24T15:28:41.676Z,23.08
2018-06-24T15:31:13.799Z,22.98
2018-06-24T15:33:45.900Z,22.94
2018-06-24T15:36:17.990Z,22.24
2018-06-24T15:38:50.072Z,22.60
2018-06-24T15:41:22.226Z,22.93
2018-06-24T15:43:54.314Z,22.63
2018-06-24T15:46:26.442Z,21.95
2018-06-24T15:48:58.546Z,21.77
2018-06-24T15:51:30.604Z,21.95
2018-06-24T15:54:02.709Z,21.78
2018-06-24T15:56:34.857Z,21.39
2018-06-24T15:59:06.931Z,20.83
2018-06-24T16:01:39.096Z,20.79
2018-06-24T16:04:11.207Z,20.57
2018-06-24T16:06:43.556Z,20.62
2018-06-24T16:09:15.875Z,20.71
2018-06-24T16:11:47.959Z,21.01
2018-06-24T16:14:20.073Z,21.05
2018-06-24T16:16:52.447Z,20.78
2018-06-24T16:19:24.788Z,20.56
2018-06-24T16:21:56.853Z,20.28
2018-06-24T16:24:28.907Z,20.14
2018-06-24T16:27:01.032Z,20.29
2018-06-24T16:29:33.146Z,20.46
2018-06-24T16:32:05.464Z,20.43
2018-06-24T16:34:37.681Z,20.65
2018-06-24T16:37:09.757Z,20.74
2018-06-24T16:39:41.855Z,21.18
2018-06-24T16:42:13.989Z,21.69
2018-06-24T16:44:46.122Z,21.43
2018-06-24T16:47:18.181Z,21.69
2018-06-24T16:49:50.330Z,21.82
2018-06-24T16:52:22.405Z,22.03
2018-06-24T16:54:54.479Z,21.99
2018-06-24T16:57:26.574Z,21.80
2018-06-24T16:59:58.666Z,21.79
2018-06-24T17:02:30.911Z,21.81
2018-06-24T17:05:03.100Z,21.66
2018-06-24T17:07:41.812Z,21.43
2018-06-24T17:10:13.945Z,21.30
2018-06-24T17:12:46.020Z,21.34
2018-06-24T17:15:18.090Z,21.53
2018-06-24T17:17:50.218Z,21.12
2018-06-24T17:20:22.497Z,21.68
2018-06-24T17:22:55.266Z,21.68
2018-06-24T17:25:27.398Z,21.67
2018-06-24T17:27:59.678Z,21.97
2018-06-24T17:30:32.187Z,22.33
2018-06-24T17:33:04.399Z,22.32
2018-06-24T17:35:36.507Z,21.94
2018-06-24T17:38:08.620Z,21.74
2018-06-24T17:40:43.284Z,21.35
2018-06-24T17:43:17.984Z,21.01
2018-06-24T17:45:50.187Z,20.95
2018-06-24T17:48:22.335Z,20.48
2018-06-24T17:50:54.509Z,20.46
2018-06-24T17:53:26.664Z,20.36
2018-06-24T17:55:58.762Z,20.33
2018-06-24T17:58:30.827Z,20.22
2018-06-24T18:01:03.314Z,20.01
2018-06-24T18:03:35.395Z,20.03
2018-06-24T18:06:07.508Z,19.96
2018-06-24T18:08:39.633Z,19.97
2018-06-24T18:11:11.750Z,20.11
2018-06-24T18:13:43.951Z,20.07
2018-06-24T18:16:16.287Z,19.85
2018-06-24T18:18:48.449Z,19.74
2018-06-24T18:21:20.580Z,19.68
2018-06-24T18:23:52.697Z,19.40
2018-06-24T18:26:25.116Z,19.37
2018-06-24T18:28:57.288Z,19.25
2018-06-24T18:31:30.219Z,19.06
2018-06-24T18:34:02.327Z,19.00
2018-06-24T18:36:34.417Z,18.84
2018-06-24T18:39:07.620Z,18.80
2018-06-24T18:41:39.715Z,18.78
2018-06-24T18:44:11.899Z,18.62
2018-06-24T18:46:44.067Z,18.62
2018-06-24T18:49:16.190Z,18.61
2018-06-24T18:51:50.378Z,18.51
2018-06-24T18:54:22.490Z,18.52
2018-06-24T18:56:54.667Z,18.49
2018-06-24T18:59:26.751Z,18.50
2018-06-24T19:01:58.931Z,18.46
2018-06-24T19:04:31.008Z,18.45
2018-06-24T19:07:03.188Z,18.40
2018-06-24T19:09:35.428Z,18.46
2018-06-24T19:12:07.547Z,18.39
2018-06-24T19:14:39.707Z,18.30
2018-06-24T19:17:12.155Z,18.25
2018-06-24T19:19:44.240Z,18.12
2018-06-24T19:22:16.368Z,18.02
2018-06-24T19:24:48.523Z,17.99
2018-06-24T19:27:20.627Z,18.02
2018-06-24T19:29:52.736Z,17.92
2018-06-24T19:32:26.020Z,17.89
2018-06-24T19:34:58.207Z,17.95
2018-06-24T19:37:30.255Z,16.88
2018-06-24T19:40:02.303Z,17.91
2018-06-24T19:42:34.342Z,17.76
2018-06-24T19:45:06.452Z,17.66
2018-06-24T19:47:38.708Z,17.61
2018-06-24T19:50:10.879Z,17.41
2018-06-24T19:52:42.948Z,17.29
2018-06-24T19:55:15.071Z,17.23
2018-06-24T19:57:47.141Z,17.18
2018-06-24T20:00:19.767Z,17.11
2018-06-24T20:02:51.976Z,17.05
2018-06-24T20:05:24.051Z,16.64
2018-06-24T20:07:56.067Z,16.99
2018-06-24T20:10:28.164Z,16.89
2018-06-24T20:13:00.280Z,16.80
2018-06-24T20:15:32.340Z,16.63
2018-06-24T20:18:04.523Z,16.50
2018-06-24T20:20:36.676Z,16.42
2018-06-24T20:23:08.760Z,16.36
2018-06-24T20:25:40.880Z,16.35
2018-06-24T20:28:12.935Z,16.27
2018-06-24T20:30:45.220Z,16.22
2018-06-24T20:33:17.286Z,16.17
2018-06-24T20:35:49.335Z,16.17
2018-06-24T20:38:21.428Z,16.15
2018-06-24T20:40:53.543Z,16.15
2018-06-24T20:43:25.638Z,16.10
2018-06-24T20:45:57.796Z,16.05
2018-06-24T20:48:29.980Z,16.10
2018-06-24T20:51:02.091Z,16.14
2018-06-24T20:53:34.175Z,16.16
2018-06-24T20:56:06.354Z,16.17
2018-06-24T20:58:38.494Z,16.10
2018-06-24T21:01:10.693Z,16.07
2018-06-24T21:03:42.718Z,16.11
2018-06-24T21:06:14.852Z,16.10
2018-06-24T21:08:46.956Z,16.08
2018-06-24T21:11:19.134Z,16.07
2018-06-24T21:13:51.245Z,16.14
2018-06-24T21:16:23.617Z,16.23
2018-06-24T21:18:55.724Z,16.26
2018-06-24T21:21:27.855Z,16.27
2018-06-24T21:23:59.964Z,16.29
2018-06-24T21:26:32.021Z,16.24
2018-06-24T21:29:04.222Z,16.20
2018-06-24T21:31:36.504Z,16.23
2018-06-24T21:34:08.569Z,16.19
2018-06-24T21:36:40.669Z,16.16
2018-06-24T21:39:12.769Z,16.08
2018-06-24T21:41:44.884Z,16.06
2018-06-24T21:44:16.931Z,16.05
2018-06-24T21:46:50.251Z,16.01
2018-06-24T21:49:22.497Z,15.96
2018-06-24T21:51:55.473Z,15.94
2018-06-24T21:54:27.635Z,15.87
2018-06-24T21:56:59.746Z,15.81
2018-06-24T21:59:32.042Z,15.78
2018-06-24T22:02:04.728Z,15.75
2018-06-24T22:04:36.859Z,15.72
2018-06-24T22:07:08.917Z,15.64
2018-06-24T22:09:40.986Z,15.57
2018-06-24T22:12:13.048Z,15.46
2018-06-24T22:14:45.130Z,15.37
2018-06-24T22:17:17.253Z,15.26
2018-06-24T22:19:49.313Z,15.13
2018-06-24T22:22:21.469Z,15.00
2018-06-24T22:24:53.700Z,14.96
2018-06-24T22:27:25.751Z,13.83
2018-06-24T22:29:57.828Z,14.82
2018-06-24T22:32:29.879Z,14.82
2018-06-24T22:35:01.966Z,14.71
2018-06-24T22:37:34.104Z,14.61
2018-06-24T22:40:06.197Z,14.47
2018-06-24T22:42:38.362Z,14.20
2018-06-24T22:45:10.468Z,13.93
2018-06-24T22:47:42.541Z,13.71
2018-06-24T22:50:14.679Z,13.63
2018-06-24T22:52:46.785Z,13.59
2018-06-24T22:55:18.893Z,13.51
2018-06-24T22:57:51.016Z,13.54
2018-06-24T23:00:23.124Z,13.44
2018-06-24T23:03:02.140Z,13.46
2018-06-24T23:05:34.183Z,13.39
2018-06-24T23:08:06.320Z,13.33
2018-06-24T23:10:38.443Z,13.29
2018-06-24T23:13:10.572Z,13.33
2018-06-24T23:15:42.645Z,13.32
2018-06-24T23:18:14.728Z,13.30
2018-06-24T23:20:46.830Z,13.31
2018-06-24T23:23:18.972Z,13.30
2018-06-24T23:25:51.095Z,13.36
2018-06-24T23:28:23.210Z,13.41
2018-06-24T23:30:55.360Z,13.36
2018-06-24T23:33:27.461Z,13.28
2018-06-24T23:35:59.600Z,13.35
2018-06-24T23:38:31.740Z,13.34
2018-06-24T23:41:03.832Z,13.35
2018-06-24T23:43:35.935Z,13.34
2018-06-24T23:46:08.163Z,13.31
2018-06-24T23:48:40.492Z,13.28
2018-06-24T23:51:12.632Z,13.31
2018-06-24T23:53:44.751Z,13.26
2018-06-24T23:56:16.890Z,13.28
2018-06-24T23:58:49.048Z,13.28
